Flight Track Log - Related Links

Times and Time Zones

All times are in EDT time to prevent confusion due to time zone crossing. See the TAM3600 flight status page for this flight to view local times or setup timezone preferences in your user account.

Time Position Orientation Groundspeed Altitude Reporting Facility
EDT Latitude Longitude Course Direction KTS MPH feet Rate Location/Type
Thu 07:54:30 PM -23.6240 -46.6600 84° East  Level FlightAware ADS-B
Thu 07:57:47 PM -23.6240 -46.6610 270° West 122 Level FlightAware ADS-B
Thu 08:00:00 PM -23.4361 -46.5020 38° Northeast  Level Estimated
Thu 08:01:00 PM -23.3514 -46.4304 38° Northeast  Level Estimated
Thu 08:02:00 PM -23.2665 -46.3590 38° Northeast  Level Estimated
Thu 08:03:00 PM -23.1817 -46.2876 38° Northeast  Level Estimated
Thu 08:04:00 PM -23.0968 -46.2163 38° Northeast  Level Estimated
Thu 08:05:00 PM -23.0118 -46.1451 38° Northeast  Level Estimated
Thu 08:06:00 PM -22.9269 -46.0739 38° Northeast  Level Estimated
Thu 08:06:40 PM -23.6240 -46.6610 270° West  Level FlightAware ADS-B
Thu 08:07:22 PM -23.6240 -46.6600 90° East 204 Level FlightAware ADS-B
Thu 08:08:45 PM -23.6270 -46.6570 138° Southeast 212 Level FlightAware ADS-B
Thu 08:11:00 PM -23.4363 -46.4957 38° Northeast  Level Estimated
Thu 08:12:00 PM -23.3514 -46.4242 38° Northeast  Level Estimated
Thu 08:12:06 PM -23.6240 -46.6610 38° Northeast  Level FlightAware ADS-B
Thu 08:14:00 PM -23.4630 -46.5247 38° Northeast  Level Estimated
Thu 08:14:24 PM -23.6240 -46.6600 38° Northeast  Level FlightAware ADS-B
Thu 08:16:30 PM -23.6240 -46.6610 270° West 355 Level FlightAware ADS-B
Thu 08:17:32 PM -23.6240 -46.6600 90° East 445 Level FlightAware ADS-B
Thu 08:20:00 PM -23.4149 -46.4831 38° Northeast  Level Estimated
Thu 08:21:00 PM -23.3301 -46.4116 38° Northeast  Level Estimated
Thu 08:22:00 PM -23.2453 -46.3401 38° Northeast  Level Estimated
Thu 08:23:00 PM -23.1604 -46.2687 38° Northeast  Level Estimated
Thu 08:24:00 PM -23.0755 -46.1975 38° Northeast  Level Estimated
Thu 08:24:49 PM -23.6580 -46.6340 147° Southeast 182 209 3,700  Level FlightAware ADS-B
Thu 08:25:17 PM -23.6800 -46.6180 146° Southeast 209 241 4,200 1,333 Climbing FlightAware ADS-B
Thu 08:25:43 PM -23.7000 -46.5990 139° Southeast 220 253 4,900 1,317 Climbing FlightAware ADS-B
Thu 08:25:58 PM -23.7010 -46.5910 98° East 219 252 5,100 973 Climbing FlightAware ADS-B
Thu 08:26:20 PM -23.6920 -46.5610 72° East 247 284 5,500 1,358 Climbing FlightAware ADS-B
Thu 08:26:51 PM -23.6780 -46.5250 67° East 276 318 6,300 2,262 Climbing FlightAware ADS-B
Thu 08:27:21 PM -23.6620 -46.4780 70° East 289 333 7,800 2,690 Climbing FlightAware ADS-B
Thu 08:27:49 PM -23.6480 -46.4410 68° East 299 344 8,900 2,250 Climbing FlightAware ADS-B
Thu 08:28:33 PM -23.6260 -46.3750 70° East 318 366 10,500 1,605 Climbing FlightAware ADS-B
Thu 08:29:15 PM -23.6020 -46.3080 69° East 364 419 11,200 1,650 Climbing FlightAware ADS-B
Thu 08:29:53 PM -23.5780 -46.2420 68° East 373 429 12,700 2,333 Climbing FlightAware ADS-B
Thu 08:30:09 PM -23.5640 -46.2150 61° Northeast 369 425 13,300 2,063 Climbing FlightAware ADS-B
Thu 08:30:25 PM -23.5430 -46.1950 41° Northeast 371 427 13,800 1,773 Climbing FlightAware ADS-B
Thu 08:30:53 PM -23.5010 -46.1730 26° Northeast 372 428 14,600 2,167 Climbing FlightAware ADS-B
Thu 08:31:37 PM -23.4300 -46.1570 12° North 367 422 16,400 2,000 Climbing FlightAware ADS-B
Thu 08:32:14 PM -23.3710 -46.1440 11° North 380 437 17,300 1,653 Climbing FlightAware ADS-B
Thu 08:33:15 PM -23.2570 -46.1460 359° North 372 428 19,100 1,765 Climbing FlightAware ADS-B
Thu 08:33:56 PM -23.1880 -46.1570 352° North 377 434 20,300 1,737 Climbing FlightAware ADS-B
Thu 08:34:31 PM -23.1240 -46.1670 352° North 386 444 21,300 1,481 Climbing FlightAware ADS-B
Thu 08:35:17 PM -23.0420 -46.1520 10° North 422 486 22,300 1,333 Climbing FlightAware ADS-B
Thu 08:36:01 PM -22.9650 -46.1050 29° Northeast 429 494 23,300 1,200 Climbing FlightAware ADS-B
Thu 08:36:42 PM -22.8940 -46.0620 29° Northeast 441 507 24,000 1,059 Climbing FlightAware ADS-B
Thu 08:37:26 PM -22.8150 -46.0130 30° Northeast 449 517 24,800 975 Climbing FlightAware ADS-B
Thu 08:38:02 PM -22.7490 -45.9720 30° Northeast 451 519 25,300 1,111 Climbing FlightAware ADS-B
Thu 08:38:47 PM -22.6670 -45.9190 31° Northeast 464 534 26,300 1,212 Climbing FlightAware ADS-B
Thu 08:39:46 PM -22.5590 -45.8430 33° Northeast 462 532 27,400 900 Climbing FlightAware ADS-B
Thu 08:40:27 PM -22.4860 -45.7920 33° Northeast 479 551 27,800 675 Climbing FlightAware ADS-B
Thu 08:41:06 PM -22.4110 -45.7400 33° Northeast 479 551 28,300 786 Climbing FlightAware ADS-B
Thu 08:41:51 PM -22.3230 -45.6800 32° Northeast 493 567 28,900 918 Climbing FlightAware ADS-B
Thu 08:42:31 PM -22.2440 -45.6250 33° Northeast 495 570 29,600 847 Climbing FlightAware ADS-B
Thu 08:43:16 PM -22.1570 -45.5650 33° Northeast 501 577 30,100 900 Climbing FlightAware ADS-B
Thu 08:43:51 PM -22.0890 -45.5190 32° Northeast 499 574 30,800 1,200 Climbing FlightAware ADS-B
Thu 08:44:36 PM -22.0030 -45.4600 32° Northeast 494 568 31,700 1,121 Climbing FlightAware ADS-B
Thu 08:45:22 PM -21.9150 -45.4000 32° Northeast 493 567 32,500 1,188 Climbing FlightAware ADS-B
Thu 08:46:17 PM -21.8090 -45.3270 33° Northeast 477 549 33,700 1,340 Climbing FlightAware ADS-B
Thu 08:46:56 PM -21.7340 -45.2760 32° Northeast 475 547 34,600 988 Climbing FlightAware ADS-B
Thu 08:47:42 PM -21.6490 -45.2180 32° Northeast 479 551 35,100 558 Climbing FlightAware ADS-B
Thu 08:48:22 PM -21.5750 -45.1680 32° Northeast 477 549 35,400 532 Climbing FlightAware ADS-B
Thu 08:49:01 PM -21.5020 -45.1180 33° Northeast 481 554 35,800 600 Climbing FlightAware ADS-B
Thu 08:49:42 PM -21.4250 -45.0670 32° Northeast 481 554 36,200 565 Climbing FlightAware ADS-B
Thu 08:50:26 PM -21.3360 -45.0060 33° Northeast 483 556 36,600 480 Climbing FlightAware ADS-B
Thu 08:51:22 PM -21.2280 -44.9330 32° Northeast 494 568 37,000 238 Climbing FlightAware ADS-B
Thu 08:52:07 PM -21.1530 -44.8830 32° Northeast 495 570 37,000  Level FlightAware ADS-B
Thu 08:53:05 PM -21.0570 -44.8190 32° Northeast 495 570 37,000  Level FlightAware ADS-B
Thu 08:53:42 PM -20.9960 -44.7780 32° Northeast 495 570 37,000  Level FlightAware ADS-B
Thu 08:54:30 PM -20.9170 -44.7250 32° Northeast 495 570 37,000  Level FlightAware ADS-B
Thu 08:55:07 PM -20.8560 -44.6840 32° Northeast 495 570 37,000  Level FlightAware ADS-B
Thu 08:55:47 PM -20.7900 -44.6400 32° Northeast 495 570 37,000  Level FlightAware ADS-B
Thu 08:56:35 PM -20.7100 -44.5870 32° Northeast 495 570 37,000  Level FlightAware ADS-B
Thu 08:57:15 PM -20.5440 -44.4740 33° Northeast 494 568 37,000  Level FlightAware ADS-B
Thu 08:57:55 PM -20.4640 -44.4210 32° Northeast 494 568 37,000  Level FlightAware ADS-B
Thu 08:58:37 PM -20.3850 -44.3680 32° Northeast 495 570 37,000  Level FlightAware ADS-B
Thu 08:59:23 PM -20.2930 -44.3070 32° Northeast 495 570 37,000  Level FlightAware ADS-B
Thu 09:00:05 PM -20.2110 -44.2520 32° Northeast 496 571 37,000  Level FlightAware ADS-B
Thu 09:00:41 PM -20.1400 -44.2050 32° Northeast 496 571 37,000  Level FlightAware ADS-B
Thu 09:01:26 PM -20.0530 -44.1470 32° Northeast 496 571 37,000  Level FlightAware ADS-B
Thu 09:02:07 PM -19.9710 -44.0930 32° Northeast 496 571 37,000  Level FlightAware ADS-B
Thu 09:02:49 PM -19.8890 -44.0390 32° Northeast 497 572 37,000  Level FlightAware ADS-B
Thu 09:03:33 PM -19.8090 -43.9760 37° Northeast 502 578 37,000  Level FlightAware ADS-B
Thu 09:04:15 PM -19.7370 -43.9040 43° Northeast 503 579 37,000  Level FlightAware ADS-B
Thu 09:04:57 PM -19.6660 -43.8320 44° Northeast 503 579 37,000  Level FlightAware ADS-B
Thu 09:06:10 PM -19.6020 -43.7670 44° Northeast 503 579 37,000  Level FlightAware ADS-B
Thu 09:06:33 PM -19.5110 -43.6750 44° Northeast 503 579 37,000  Level FlightAware ADS-B
Thu 09:07:46 PM -19.3890 -43.5520 44° Northeast 499 574 37,000  Level FlightAware ADS-B
Thu 09:08:25 PM -19.3230 -43.4860 43° Northeast 496 571 37,000  Level FlightAware ADS-B
Thu 09:09:09 PM -19.2500 -43.4120 44° Northeast 493 567 37,000  Level FlightAware ADS-B
Thu 09:09:49 PM -19.1820 -43.3440 43° Northeast 492 566 37,000  Level FlightAware ADS-B
Thu 09:10:29 PM -19.1150 -43.2770 43° Northeast 492 566 37,000  Level FlightAware ADS-B
Thu 09:10:59 PM -19.0630 -43.2250 43° Northeast 493 567 37,000  Level FlightAware ADS-B
Thu 09:11:39 PM -18.9990 -43.1610 43° Northeast 493 567 37,000  Level FlightAware ADS-B
Thu 09:12:19 PM -18.9310 -43.0930 43° Northeast 493 567 37,000  Level FlightAware ADS-B
Thu 09:12:59 PM -18.8660 -43.0280 43° Northeast 494 568 37,000  Level FlightAware ADS-B
Thu 09:13:39 PM -18.8040 -42.9660 43° Northeast 493 567 37,000  Level FlightAware ADS-B
Thu 09:14:24 PM -18.7250 -42.8880 43° Northeast 493 567 37,000  Level FlightAware ADS-B
Thu 09:15:04 PM -18.6570 -42.8200 43° Northeast 492 566 37,000  Level FlightAware ADS-B
Thu 09:15:44 PM -18.5910 -42.7540 43° Northeast 492 566 37,000  Level FlightAware ADS-B
Thu 09:16:29 PM -18.5200 -42.6840 43° Northeast 491 565 37,000  Level FlightAware ADS-B
Thu 09:17:10 PM -18.4510 -42.6150 43° Northeast 491 565 37,000  Level FlightAware ADS-B
Thu 09:17:50 PM -18.3850 -42.5500 43° Northeast 492 566 37,000  Level FlightAware ADS-B
Thu 09:18:35 PM -18.3060 -42.4730 43° Northeast 494 568 37,000  Level FlightAware ADS-B
Thu 09:19:15 PM -18.2440 -42.4110 44° Northeast 494 568 37,000  Level FlightAware ADS-B
Thu 09:20:01 PM -18.1670 -42.3350 43° Northeast 493 567 37,000  Level FlightAware ADS-B
Thu 09:20:40 PM -18.1000 -42.2690 43° Northeast 493 567 37,000  Level FlightAware ADS-B
Thu 09:21:20 PM -18.0340 -42.2030 44° Northeast 494 568 37,000  Level FlightAware ADS-B
Thu 09:22:00 PM -17.9670 -42.1380 43° Northeast 495 570 37,000  Level FlightAware ADS-B
Thu 09:22:45 PM -17.8900 -42.0630 43° Northeast 496 571 37,000  Level FlightAware ADS-B
Thu 09:23:20 PM -17.8310 -42.0040 44° Northeast 496 571 37,000  Level FlightAware ADS-B
Thu 09:24:07 PM -17.7560 -41.9310 43° Northeast 495 570 37,000  Level FlightAware ADS-B
Thu 09:25:10 PM -17.6500 -41.8280 43° Northeast 495 570 37,000  Level FlightAware ADS-B
Thu 09:26:02 PM -17.5890 -41.7670 44° Northeast 494 568 37,000  Level FlightAware ADS-B
Thu 09:26:39 PM -17.5360 -41.7160 43° Northeast 494 568 37,000  Level FlightAware ADS-B
Thu 09:27:27 PM -17.4680 -41.6490 43° Northeast 494 568 37,000  Level FlightAware ADS-B
Thu 09:28:02 PM -17.4180 -41.6010 42° Northeast 494 568 37,000  Level FlightAware ADS-B
Thu 09:28:51 PM -17.3480 -41.5330 43° Northeast 494 568 37,000  Level FlightAware ADS-B
Thu 09:29:28 PM -17.2960 -41.4810 44° Northeast 494 568 37,000  Level FlightAware ADS-B
Thu 09:30:04 PM -17.2450 -41.4310 43° Northeast 494 568 37,000  Level FlightAware ADS-B
Thu 09:30:51 PM -17.1780 -41.3660 43° Northeast 494 568 37,000  Level FlightAware ADS-B
Thu 09:31:39 PM -17.1100 -41.3000 43° Northeast 494 568 37,000  Level FlightAware ADS-B
Thu 09:32:16 PM -17.0570 -41.2480 43° Northeast 494 568 37,000  Level FlightAware ADS-B
Thu 09:33:16 PM -16.9720 -41.1650 43° Northeast 494 568 37,000  Level FlightAware ADS-B
Thu 09:33:52 PM -16.9210 -41.1150 43° Northeast 494 568 37,000  Level FlightAware ADS-B
Thu 09:34:54 PM -16.8330 -41.0300 43° Northeast 494 568 37,000  Level FlightAware ADS-B
Thu 09:35:28 PM -16.7840 -40.9820 43° Northeast 494 568 37,000 -793 Level FlightAware ADS-B
Thu 09:38:00 PM -16.5636 -40.8279 34° Northeast  Level Estimated
Thu 09:39:00 PM -16.4765 -40.7671 34° Northeast  Level Estimated
Thu 09:40:00 PM -16.3895 -40.7064 34° Northeast  Level Estimated
Thu 09:41:00 PM -16.3024 -40.6458 34° Northeast  Level Estimated
Thu 09:42:00 PM -16.2153 -40.5852 34° Northeast  Level Estimated
Thu 09:43:00 PM -16.1282 -40.5247 34° Northeast  Level Estimated
Thu 09:44:00 PM -16.0410 -40.4642 34° Northeast  Level Estimated
Thu 09:45:00 PM -15.9539 -40.4038 34° Northeast  Level Estimated
Thu 09:46:00 PM -15.8667 -40.3434 34° Northeast  Level Estimated
Thu 09:47:00 PM -15.7795 -40.2831 34° Northeast  Level Estimated
Thu 09:48:00 PM -15.6923 -40.2228 34° Northeast  Level Estimated
Thu 09:49:00 PM -15.6051 -40.1626 34° Northeast  Level Estimated
Thu 09:50:00 PM -15.5179 -40.1024 34° Northeast  Level Estimated
Thu 09:51:00 PM -15.4306 -40.0423 34° Northeast  Level Estimated
Thu 09:52:00 PM -15.3434 -39.9822 34° Northeast  Level Estimated
Thu 09:53:00 PM -15.2561 -39.9222 34° Northeast  Level Estimated
Thu 09:54:00 PM -15.1688 -39.8622 34° Northeast  Level Estimated
Thu 09:55:00 PM -15.0815 -39.8023 34° Northeast  Level Estimated
Thu 09:56:00 PM -14.9942 -39.7424 34° Northeast  Level Estimated
Thu 09:57:00 PM -14.9068 -39.6826 33° Northeast  Level Estimated
Thu 09:58:00 PM -14.8195 -39.6228 33° Northeast  Level Estimated
Thu 09:59:00 PM -14.7321 -39.5631 33° Northeast  Level Estimated
Thu 10:00:00 PM -14.6447 -39.5034 33° Northeast  Level Estimated
Thu 10:01:00 PM -14.5573 -39.4438 33° Northeast  Level Estimated
Thu 10:02:00 PM -14.4699 -39.3842 33° Northeast  Level Estimated
Thu 10:03:00 PM -14.3824 -39.3247 33° Northeast  Level Estimated
Thu 10:03:09 PM -13.6070 -38.9580 33° Northeast 340 391 14,600  Level FlightAware ADS-B
Thu 10:03:54 PM -13.5580 -38.9070 45° Northeast 339 390 13,400 -1,553 Descending FlightAware ADS-B
Thu 10:04:34 PM -13.5130 -38.8610 45° Northeast 336 387 12,400 -1,575 Descending FlightAware ADS-B
Thu 10:05:14 PM -13.4690 -38.8150 45° Northeast 333 383 11,300 -1,537 Descending FlightAware ADS-B
Thu 10:05:56 PM -13.4240 -38.7690 45° Northeast 325 374 10,300 -1,114 Descending FlightAware ADS-B
Thu 10:06:24 PM -13.3950 -38.7380 46° Northeast 303 349 10,000 -818 Descending FlightAware ADS-B
Thu 10:06:40 PM -13.3800 -38.7230 44° Northeast 294 338 9,700 -1,364 Descending FlightAware ADS-B
Thu 10:07:08 PM -13.3540 -38.6960 45° Northeast 291 335 9,000 -1,556 Descending FlightAware ADS-B
Thu 10:07:34 PM -13.3260 -38.6730 39° Northeast 289 333 8,300 -1,556 Descending FlightAware ADS-B
Thu 10:08:02 PM -13.2890 -38.6630 15° North 287 330 7,600 -1,393 Descending FlightAware ADS-B
Thu 10:08:30 PM -13.2530 -38.6550 12° North 284 327 7,000 -1,500 Descending FlightAware ADS-B
Thu 10:08:46 PM -13.2330 -38.6500 14° North 287 330 6,500 -1,579 Descending FlightAware ADS-B
Thu 10:09:08 PM -13.2060 -38.6440 12° North 283 326 6,000 -1,500 Descending FlightAware ADS-B
Thu 10:09:30 PM -13.1780 -38.6370 14° North 281 323 5,400 -1,429 Descending FlightAware ADS-B
Thu 10:09:50 PM -13.1520 -38.6310 13° North 277 319 5,000 -750 Descending FlightAware ADS-B
Thu 10:10:10 PM -13.1260 -38.6240 15° North 267 307 4,900 -130 Descending FlightAware ADS-B
Thu 10:10:36 PM -13.0970 -38.6170 13° North 240 276 4,900  Level FlightAware ADS-B
Thu 10:10:50 PM -13.0840 -38.6090 31° Northeast 230 265 4,900 -261 Level FlightAware ADS-B
Thu 10:10:59 PM -13.0770 -38.6020 44° Northeast 226 260 4,800 -1,116 Descending FlightAware ADS-B
Thu 10:11:33 PM -13.0540 -38.5830 39° Northeast 228 262 4,100 -1,279 Descending FlightAware ADS-B
Thu 10:12:00 PM -13.0270 -38.5600 40° Northeast 225 259 3,500 -1,138 Descending FlightAware ADS-B
Thu 10:12:31 PM -13.0030 -38.5390 40° Northeast 225 259 3,000 -814 Descending FlightAware ADS-B
Thu 10:12:59 PM -12.9800 -38.5210 37° Northeast 218 251 2,700 -667 Descending FlightAware ADS-B
Thu 10:13:25 PM -12.9600 -38.5040 40° Northeast 203 234 2,400 -764 Descending FlightAware ADS-B
Thu 10:13:54 PM -12.9420 -38.4850 46° Northeast 192 221 2,000 -585 Descending FlightAware ADS-B
Thu 10:14:06 PM -12.9390 -38.4750 73° East 179 206 2,000 -140 Level FlightAware ADS-B
Thu 10:14:37 PM -12.9340 -38.4520 77° East 149 171 1,900 -305 Descending FlightAware ADS-B
Thu 10:15:05 PM -12.9310 -38.4330 81° East 144 166 1,700 -536 Descending FlightAware ADS-B
Thu 10:15:33 PM -12.9270 -38.4140 78° East 139 160 1,400 -686 Descending FlightAware ADS-B
Thu 10:16:15 PM -12.9220 -38.3880 79° East 136 157 900 -656 Descending FlightAware ADS-B
Thu 10:16:37 PM -12.9190 -38.3740 78° East 140 161 700 -667 Descending FlightAware ADS-B
Thu 10:17:09 PM -12.9150 -38.3530 79° East 137 158 300 -682 Descending FlightAware ADS-B
Thu 10:17:21 PM -12.9130 -38.3450 76° East 141 162 200 -500 Descending FlightAware ADS-B
Thu 10:17:52 PM -12.9090 -38.3250 78° East 125 144 -387 Descending FlightAware ADS-B
Thu 10:18:19 PM -12.9080 -38.3180 82° East 28 32  Level FlightAware ADS-B
Thu 10:18:46 PM -12.9090 -38.3170 136° Southeast 31 36  Level FlightAware ADS-B
Thu 10:19:15 PM -12.9090 -38.3190 270° West 19 22  Level FlightAware ADS-B
Thu 10:19:44 PM -12.9100 -38.3230 256° West 24 28  Level FlightAware ADS-B
Thu 10:20:05 PM -12.9110 -38.3250 243° Southwest 23 26  Level FlightAware ADS-B
Thu 10:20:33 PM -12.9110 -38.3280 270° West 20 23  Level FlightAware ADS-B
Thu 10:20:53 PM -12.9110 -38.3300 270° West 19 22  Level FlightAware ADS-B
Thu 10:21:21 PM -12.9120 -38.3310 224° Southwest 28 32  Level FlightAware ADS-B
Thu 10:21:29 PM -12.9120 -38.3320 270° West 28 32  Level FlightAware ADS-B
Thu 10:21:49 PM -12.9130 -38.3310 136° Southeast 27 31  Level FlightAware ADS-B
Thu 10:22:30 PM -12.9150 -38.3320 206° Southwest 27 31  Level FlightAware ADS-B
Thu 10:25:00 PM -12.9110 -38.3310 13° North  Level Estimated
Thu 10:26:00 PM -12.9110 -38.3310 224° Southwest  Level Estimated
Thu 10:27:00 PM -12.9110 -38.3310 224° Southwest  Level Estimated
Thu 10:28:00 PM -12.9110 -38.3310 224° Southwest  Level Estimated
Thu 10:29:00 PM -12.9110 -38.3310 224° Southwest  Level Estimated
Thu 10:30:00 PM -12.9110 -38.3310 224° Southwest  Level Estimated
Thu 10:31:00 PM -12.9110 -38.3310 224° Southwest  Level Estimated
Thu 10:32:00 PM -12.9110 -38.3310 224° Southwest  Level Estimated
Thu 10:33:00 PM -12.9110 -38.3310 224° Southwest  Level Estimated
Thu 10:34:00 PM -12.9110 -38.3310 224° Southwest  Level Estimated
Thu 10:35:00 PM -12.9110 -38.3310 224° Southwest  Level Estimated
Thu 10:36:00 PM -12.9110 -38.3310 224° Southwest  Level Estimated
Thu 10:37:00 PM -12.9110 -38.3310 224° Southwest  Level Estimated
Thu 10:38:00 PM -12.9110 -38.3310 224° Southwest  Level Estimated
Thu 10:39:00 PM -12.9110 -38.3310 224° Southwest  Level Estimated
Thu 10:40:00 PM -12.9110 -38.3310 224° Southwest  Level Estimated
Thu 10:41:00 PM -12.9110 -38.3310 224° Southwest  Level Estimated
Thu 10:42:00 PM -12.9110 -38.3310 224° Southwest  Level Estimated
Thu 10:43:00 PM -12.9110 -38.3310 224° Southwest  Level Estimated
Thu 10:44:00 PM -12.9110 -38.3310 224° Southwest  Level Estimated
Thu 10:45:00 PM -12.9110 -38.3310 224° Southwest  Level Estimated
Thu 10:46:00 PM -12.9110 -38.3310 224° Southwest  Level Estimated
Thu 10:47:00 PM -12.9110 -38.3310 224° Southwest  Level Estimated

Login

Don't have an account? Register now (free) for customized features, flight alerts, and more!